sensor_id;sensor_type;location;lat;lon;timestamp;P1;durP1;ratioP1;P2;durP2;ratioP2
26742;SDS011;14341;51.256;22.478;2023-02-03T00:02:25;727.63;;;669.50;;
26742;SDS011;14341;51.256;22.478;2023-02-03T00:05:28;448.58;;;418.77;;
26742;SDS011;14341;51.256;22.478;2023-02-03T00:08:32;817.67;;;726.35;;
26742;SDS011;14341;51.256;22.478;2023-02-03T00:11:37;276.20;;;258.45;;
26742;SDS011;14341;51.256;22.478;2023-02-03T00:14:40;776.67;;;564.88;;
26742;SDS011;14341;51.256;22.478;2023-02-03T00:17:43;347.58;;;322.02;;
26742;SDS011;14341;51.256;22.478;2023-02-03T00:20:46;387.08;;;354.83;;
26742;SDS011;14341;51.256;22.478;2023-02-03T00:23:50;935.17;;;669.75;;
26742;SDS011;14341;51.256;22.478;2023-02-03T00:26:56;238.18;;;223.55;;
26742;SDS011;14341;51.256;22.478;2023-02-03T00:29:59;404.67;;;372.00;;
26742;SDS011;14341;51.256;22.478;2023-02-03T00:33:03;326.55;;;303.67;;
26742;SDS011;14341;51.256;22.478;2023-02-03T00:36:07;338.30;;;315.02;;
26742;SDS011;14341;51.256;22.478;2023-02-03T00:39:11;304.38;;;284.00;;
26742;SDS011;14341;51.256;22.478;2023-02-03T00:42:15;585.63;;;412.00;;
26742;SDS011;14341;51.256;22.478;2023-02-03T00:45:18;376.65;;;339.60;;
26742;SDS011;14341;51.256;22.478;2023-02-03T00:48:22;282.00;;;264.05;;
26742;SDS011;14341;51.256;22.478;2023-02-03T00:51:25;449.38;;;413.80;;
26742;SDS011;14341;51.256;22.478;2023-02-03T00:54:28;850.80;;;582.13;;
26742;SDS011;14341;51.256;22.478;2023-02-03T00:57:35;631.65;;;425.38;;
26742;SDS011;14341;51.256;22.478;2023-02-03T01:00:39;272.77;;;255.13;;
26742;SDS011;14341;51.256;22.478;2023-02-03T01:03:42;263.73;;;246.00;;
26742;SDS011;14341;51.256;22.478;2023-02-03T01:06:45;425.23;;;389.98;;
26742;SDS011;14341;51.256;22.478;2023-02-03T01:09:48;323.45;;;302.55;;
26742;SDS011;14341;51.256;22.478;2023-02-03T01:12:53;312.83;;;290.38;;
26742;SDS011;14341;51.256;22.478;2023-02-03T01:15:56;311.27;;;290.25;;
26742;SDS011;14341;51.256;22.478;2023-02-03T01:18:59;525.20;;;481.58;;
26742;SDS011;14341;51.256;22.478;2023-02-03T01:22:03;337.45;;;313.70;;
26742;SDS011;14341;51.256;22.478;2023-02-03T01:25:06;313.75;;;293.10;;
26742;SDS011;14341;51.256;22.478;2023-02-03T01:28:12;552.78;;;501.00;;
26742;SDS011;14341;51.256;22.478;2023-02-03T01:31:17;501.60;;;462.00;;
26742;SDS011;14341;51.256;22.478;2023-02-03T01:34:22;297.08;;;277.67;;
26742;SDS011;14341;51.256;22.478;2023-02-03T01:37:25;317.13;;;295.95;;
26742;SDS011;14341;51.256;22.478;2023-02-03T01:40:29;388.48;;;359.35;;
26742;SDS011;14341;51.256;22.478;2023-02-03T01:43:35;338.10;;;316.17;;
26742;SDS011;14341;51.256;22.478;2023-02-03T01:46:40;310.27;;;289.85;;
26742;SDS011;14341;51.256;22.478;2023-02-03T01:49:48;343.88;;;320.85;;
26742;SDS011;14341;51.256;22.478;2023-02-03T01:53:00;416.58;;;388.83;;
26742;SDS011;14341;51.256;22.478;2023-02-03T01:56:05;374.85;;;348.83;;
26742;SDS011;14341;51.256;22.478;2023-02-03T01:59:11;377.73;;;353.55;;
26742;SDS011;14341;51.256;22.478;2023-02-03T02:02:19;521.65;;;480.63;;
26742;SDS011;14341;51.256;22.478;2023-02-03T02:05:24;442.90;;;411.67;;
26742;SDS011;14341;51.256;22.478;2023-02-03T02:08:33;441.95;;;412.15;;
26742;SDS011;14341;51.256;22.478;2023-02-03T02:11:37;403.33;;;376.55;;
26742;SDS011;14341;51.256;22.478;2023-02-03T02:14:43;599.15;;;544.97;;
26742;SDS011;14341;51.256;22.478;2023-02-03T02:18:00;472.42;;;441.55;;
26742;SDS011;14341;51.256;22.478;2023-02-03T02:25:01;432.60;;;403.85;;
26742;SDS011;14341;51.256;22.478;2023-02-03T02:32:04;538.97;;;497.48;;
26742;SDS011;14341;51.256;22.478;2023-02-03T02:35:14;498.05;;;465.23;;
26742;SDS011;14341;51.256;22.478;2023-02-03T02:38:33;546.50;;;505.88;;
26742;SDS011;14341;51.256;22.478;2023-02-03T02:41:48;569.17;;;530.58;;
26742;SDS011;14341;51.256;22.478;2023-02-03T02:44:58;545.63;;;507.73;;
26742;SDS011;14341;51.256;22.478;2023-02-03T02:48:12;460.35;;;430.52;;
26742;SDS011;14341;51.256;22.478;2023-02-03T02:51:20;489.63;;;458.38;;
26742;SDS011;14341;51.256;22.478;2023-02-03T02:54:25;497.63;;;464.17;;
26742;SDS011;14341;51.256;22.478;2023-02-03T02:57:30;498.67;;;465.88;;
26742;SDS011;14341;51.256;22.478;2023-02-03T03:04:12;510.95;;;478.17;;
26742;SDS011;14341;51.256;22.478;2023-02-03T03:07:21;504.80;;;472.25;;
26742;SDS011;14341;51.256;22.478;2023-02-03T03:10:28;488.50;;;457.58;;
26742;SDS011;14341;51.256;22.478;2023-02-03T03:13:35;499.95;;;466.73;;
26742;SDS011;14341;51.256;22.478;2023-02-03T03:16:44;485.02;;;453.65;;
26742;SDS011;14341;51.256;22.478;2023-02-03T03:19:53;482.15;;;450.70;;
26742;SDS011;14341;51.256;22.478;2023-02-03T03:22:59;463.77;;;433.73;;
26742;SDS011;14341;51.256;22.478;2023-02-03T03:26:08;464.77;;;434.98;;
26742;SDS011;14341;51.256;22.478;2023-02-03T03:29:16;463.67;;;433.58;;
26742;SDS011;14341;51.256;22.478;2023-02-03T03:32:26;412.33;;;385.58;;
26742;SDS011;14341;51.256;22.478;2023-02-03T03:35:36;337.58;;;312.23;;
26742;SDS011;14341;51.256;22.478;2023-02-03T03:38:43;487.50;;;454.50;;
26742;SDS011;14341;51.256;22.478;2023-02-03T03:41:56;423.45;;;393.88;;
26742;SDS011;14341;51.256;22.478;2023-02-03T03:45:04;402.88;;;375.98;;
26742;SDS011;14341;51.256;22.478;2023-02-03T03:48:12;391.38;;;365.52;;
26742;SDS011;14341;51.256;22.478;2023-02-03T03:51:20;321.40;;;300.60;;
26742;SDS011;14341;51.256;22.478;2023-02-03T03:54:28;282.13;;;263.77;;
26742;SDS011;14341;51.256;22.478;2023-02-03T03:57:34;256.33;;;239.93;;
26742;SDS011;14341;51.256;22.478;2023-02-03T04:00:41;292.92;;;274.05;;
26742;SDS011;14341;51.256;22.478;2023-02-03T04:03:47;227.40;;;213.05;;
26742;SDS011;14341;51.256;22.478;2023-02-03T04:06:55;359.13;;;334.65;;
26742;SDS011;14341;51.256;22.478;2023-02-03T04:09:58;447.70;;;403.38;;
26742;SDS011;14341;51.256;22.478;2023-02-03T04:13:02;239.63;;;224.90;;
26742;SDS011;14341;51.256;22.478;2023-02-03T04:16:06;339.00;;;316.50;;
26742;SDS011;14341;51.256;22.478;2023-02-03T04:19:10;398.27;;;370.02;;
26742;SDS011;14341;51.256;22.478;2023-02-03T04:22:17;256.00;;;239.75;;
26742;SDS011;14341;51.256;22.478;2023-02-03T04:25:20;241.20;;;226.65;;
26742;SDS011;14341;51.256;22.478;2023-02-03T04:28:23;457.35;;;413.67;;
26742;SDS011;14341;51.256;22.478;2023-02-03T04:31:26;244.88;;;229.88;;
26742;SDS011;14341;51.256;22.478;2023-02-03T04:34:30;218.00;;;204.55;;
26742;SDS011;14341;51.256;22.478;2023-02-03T04:37:35;206.35;;;193.77;;
26742;SDS011;14341;51.256;22.478;2023-02-03T04:40:38;196.43;;;183.88;;
26742;SDS011;14341;51.256;22.478;2023-02-03T04:43:41;214.00;;;200.25;;
26742;SDS011;14341;51.256;22.478;2023-02-03T04:46:45;233.82;;;219.20;;
26742;SDS011;14341;51.256;22.478;2023-02-03T04:49:48;213.75;;;200.35;;
26742;SDS011;14341;51.256;22.478;2023-02-03T04:52:52;251.25;;;235.55;;
26742;SDS011;14341;51.256;22.478;2023-02-03T04:55:56;239.25;;;224.27;;
26742;SDS011;14341;51.256;22.478;2023-02-03T04:58:59;221.77;;;207.85;;
26742;SDS011;14341;51.256;22.478;2023-02-03T05:02:03;229.13;;;215.00;;
26742;SDS011;14341;51.256;22.478;2023-02-03T05:05:06;255.82;;;239.73;;
26742;SDS011;14341;51.256;22.478;2023-02-03T05:08:11;247.57;;;231.75;;
26742;SDS011;14341;51.256;22.478;2023-02-03T05:11:14;290.05;;;271.30;;
26742;SDS011;14341;51.256;22.478;2023-02-03T05:14:18;515.83;;;467.52;;
26742;SDS011;14341;51.256;22.478;2023-02-03T05:17:21;473.98;;;436.20;;
26742;SDS011;14341;51.256;22.478;2023-02-03T05:20:24;217.43;;;203.90;;
26742;SDS011;14341;51.256;22.478;2023-02-03T05:23:30;226.90;;;212.82;;
26742;SDS011;14341;51.256;22.478;2023-02-03T05:26:37;222.52;;;208.90;;
26742;SDS011;14341;51.256;22.478;2023-02-03T05:29:40;356.35;;;332.90;;
26742;SDS011;14341;51.256;22.478;2023-02-03T05:32:43;222.85;;;209.05;;
26742;SDS011;14341;51.256;22.478;2023-02-03T05:35:46;229.60;;;214.85;;
26742;SDS011;14341;51.256;22.478;2023-02-03T05:38:51;236.85;;;222.52;;
26742;SDS011;14341;51.256;22.478;2023-02-03T05:41:54;214.25;;;201.18;;
26742;SDS011;14341;51.256;22.478;2023-02-03T05:44:58;233.68;;;219.52;;
26742;SDS011;14341;51.256;22.478;2023-02-03T05:48:02;302.73;;;283.05;;
26742;SDS011;14341;51.256;22.478;2023-02-03T05:51:05;227.32;;;212.73;;
26742;SDS011;14341;51.256;22.478;2023-02-03T05:54:10;270.95;;;253.38;;
26742;SDS011;14341;51.256;22.478;2023-02-03T05:57:13;221.68;;;207.90;;
26742;SDS011;14341;51.256;22.478;2023-02-03T06:00:19;385.42;;;343.52;;
26742;SDS011;14341;51.256;22.478;2023-02-03T06:03:34;232.70;;;217.90;;
26742;SDS011;14341;51.256;22.478;2023-02-03T06:06:38;229.93;;;215.70;;
26742;SDS011;14341;51.256;22.478;2023-02-03T06:09:42;418.45;;;385.83;;
26742;SDS011;14341;51.256;22.478;2023-02-03T06:12:46;332.05;;;308.58;;
26742;SDS011;14341;51.256;22.478;2023-02-03T06:15:49;262.27;;;245.65;;
26742;SDS011;14341;51.256;22.478;2023-02-03T06:18:52;208.88;;;195.60;;
26742;SDS011;14341;51.256;22.478;2023-02-03T06:21:58;242.45;;;226.63;;
26742;SDS011;14341;51.256;22.478;2023-02-03T06:25:03;198.82;;;186.50;;
26742;SDS011;14341;51.256;22.478;2023-02-03T06:28:07;254.50;;;238.52;;
26742;SDS011;14341;51.256;22.478;2023-02-03T06:31:11;237.02;;;220.02;;
26742;SDS011;14341;51.256;22.478;2023-02-03T06:34:14;290.15;;;270.50;;
26742;SDS011;14341;51.256;22.478;2023-02-03T06:37:17;148.48;;;138.75;;
26742;SDS011;14341;51.256;22.478;2023-02-03T06:40:22;207.10;;;193.52;;
26742;SDS011;14341;51.256;22.478;2023-02-03T06:43:26;226.57;;;212.35;;
26742;SDS011;14341;51.256;22.478;2023-02-03T06:46:29;237.25;;;221.75;;
26742;SDS011;14341;51.256;22.478;2023-02-03T06:49:34;354.13;;;325.98;;
26742;SDS011;14341;51.256;22.478;2023-02-03T06:52:37;304.73;;;282.20;;
26742;SDS011;14341;51.256;22.478;2023-02-03T06:55:42;225.75;;;212.27;;
26742;SDS011;14341;51.256;22.478;2023-02-03T06:58:48;217.38;;;204.57;;
26742;SDS011;14341;51.256;22.478;2023-02-03T07:01:51;293.92;;;273.80;;
26742;SDS011;14341;51.256;22.478;2023-02-03T07:04:55;243.27;;;227.38;;
26742;SDS011;14341;51.256;22.478;2023-02-03T07:07:59;179.25;;;168.27;;
26742;SDS011;14341;51.256;22.478;2023-02-03T07:11:03;242.45;;;226.20;;
26742;SDS011;14341;51.256;22.478;2023-02-03T07:14:07;123.85;;;116.32;;
26742;SDS011;14341;51.256;22.478;2023-02-03T07:17:10;152.20;;;143.07;;
26742;SDS011;14341;51.256;22.478;2023-02-03T07:20:13;294.05;;;270.42;;
26742;SDS011;14341;51.256;22.478;2023-02-03T07:23:17;488.25;;;328.45;;
26742;SDS011;14341;51.256;22.478;2023-02-03T07:26:22;135.73;;;126.53;;
26742;SDS011;14341;51.256;22.478;2023-02-03T07:29:27;119.88;;;111.97;;
26742;SDS011;14341;51.256;22.478;2023-02-03T07:32:30;97.07;;;90.72;;
26742;SDS011;14341;51.256;22.478;2023-02-03T08:18:49;56.45;;;52.85;;
26742;SDS011;14341;51.256;22.478;2023-02-03T08:21:52;36.88;;;34.45;;
26742;SDS011;14341;51.256;22.478;2023-02-03T08:24:55;34.30;;;32.17;;
26742;SDS011;14341;51.256;22.478;2023-02-03T08:27:59;38.25;;;35.92;;
26742;SDS011;14341;51.256;22.478;2023-02-03T08:31:09;51.38;;;48.03;;
26742;SDS011;14341;51.256;22.478;2023-02-03T08:34:13;30.17;;;28.27;;
26742;SDS011;14341;51.256;22.478;2023-02-03T08:37:16;30.80;;;28.90;;
26742;SDS011;14341;51.256;22.478;2023-02-03T08:40:21;24.50;;;22.90;;
26742;SDS011;14341;51.256;22.478;2023-02-03T08:43:24;27.88;;;25.63;;
26742;SDS011;14341;51.256;22.478;2023-02-03T08:46:28;29.42;;;27.35;;
26742;SDS011;14341;51.256;22.478;2023-02-03T08:49:32;47.28;;;44.38;;
26742;SDS011;14341;51.256;22.478;2023-02-03T08:52:36;43.65;;;40.85;;
26742;SDS011;14341;51.256;22.478;2023-02-03T08:55:39;33.75;;;31.52;;
26742;SDS011;14341;51.256;22.478;2023-02-03T08:58:42;38.00;;;35.40;;
26742;SDS011;14341;51.256;22.478;2023-02-03T09:01:47;54.30;;;50.50;;
26742;SDS011;14341;51.256;22.478;2023-02-03T09:04:50;40.05;;;36.58;;
26742;SDS011;14341;51.256;22.478;2023-02-03T09:07:54;146.15;;;81.03;;
26742;SDS011;14341;51.256;22.478;2023-02-03T09:10:57;141.77;;;116.65;;
26742;SDS011;14341;51.256;22.478;2023-02-03T09:14:01;197.10;;;131.98;;
26742;SDS011;14341;51.256;22.478;2023-02-03T09:17:08;33.47;;;30.60;;
26742;SDS011;14341;51.256;22.478;2023-02-03T09:20:12;53.17;;;49.55;;
26742;SDS011;14341;51.256;22.478;2023-02-03T09:23:15;30.70;;;28.80;;
26742;SDS011;14341;51.256;22.478;2023-02-03T09:26:18;22.48;;;20.90;;
26742;SDS011;14341;51.256;22.478;2023-02-03T09:29:22;33.45;;;30.92;;
26742;SDS011;14341;51.256;22.478;2023-02-03T09:32:26;39.08;;;36.40;;
26742;SDS011;14341;51.256;22.478;2023-02-03T09:35:30;37.72;;;35.20;;
26742;SDS011;14341;51.256;22.478;2023-02-03T09:38:33;30.33;;;28.15;;
26742;SDS011;14341;51.256;22.478;2023-02-03T09:41:47;30.30;;;28.13;;
26742;SDS011;14341;51.256;22.478;2023-02-03T09:45:05;36.88;;;33.53;;
26742;SDS011;14341;51.256;22.478;2023-02-03T09:48:19;26.42;;;24.50;;
26742;SDS011;14341;51.256;22.478;2023-02-03T09:51:26;55.20;;;51.78;;
26742;SDS011;14341;51.256;22.478;2023-02-03T09:54:35;57.67;;;54.17;;
26742;SDS011;14341;51.256;22.478;2023-02-03T09:57:46;78.43;;;73.15;;
26742;SDS011;14341;51.256;22.478;2023-02-03T10:00:57;32.00;;;29.90;;
26742;SDS011;14341;51.256;22.478;2023-02-03T10:04:04;22.20;;;20.75;;
26742;SDS011;14341;51.256;22.478;2023-02-03T10:07:26;27.13;;;25.02;;
26742;SDS011;14341;51.256;22.478;2023-02-03T10:10:37;21.65;;;20.20;;
26742;SDS011;14341;51.256;22.478;2023-02-03T10:13:44;26.55;;;24.70;;
26742;SDS011;14341;51.256;22.478;2023-02-03T10:16:58;71.13;;;63.97;;
26742;SDS011;14341;51.256;22.478;2023-02-03T10:20:32;25.85;;;23.95;;
26742;SDS011;14341;51.256;22.478;2023-02-03T10:23:38;29.60;;;27.63;;
26742;SDS011;14341;51.256;22.478;2023-02-03T10:26:44;28.45;;;26.45;;
26742;SDS011;14341;51.256;22.478;2023-02-03T10:29:50;35.00;;;32.63;;
26742;SDS011;14341;51.256;22.478;2023-02-03T10:32:59;29.23;;;27.17;;
26742;SDS011;14341;51.256;22.478;2023-02-03T10:36:16;28.52;;;26.63;;
26742;SDS011;14341;51.256;22.478;2023-02-03T10:39:26;28.27;;;26.50;;
26742;SDS011;14341;51.256;22.478;2023-02-03T10:42:33;31.98;;;30.00;;
26742;SDS011;14341;51.256;22.478;2023-02-03T10:45:51;44.70;;;41.67;;
26742;SDS011;14341;51.256;22.478;2023-02-03T10:48:54;63.30;;;58.20;;
26742;SDS011;14341;51.256;22.478;2023-02-03T10:52:00;38.92;;;35.33;;
26742;SDS011;14341;51.256;22.478;2023-02-03T10:55:05;49.42;;;45.30;;
26742;SDS011;14341;51.256;22.478;2023-02-03T10:58:30;56.85;;;52.90;;
26742;SDS011;14341;51.256;22.478;2023-02-03T11:01:37;49.38;;;45.92;;
26742;SDS011;14341;51.256;22.478;2023-02-03T11:04:42;31.73;;;29.42;;
26742;SDS011;14341;51.256;22.478;2023-02-03T11:07:47;41.15;;;38.30;;
26742;SDS011;14341;51.256;22.478;2023-02-03T11:10:51;36.17;;;33.80;;
26742;SDS011;14341;51.256;22.478;2023-02-03T11:14:11;71.45;;;65.90;;
26742;SDS011;14341;51.256;22.478;2023-02-03T11:17:18;40.63;;;37.78;;
26742;SDS011;14341;51.256;22.478;2023-02-03T11:20:23;219.85;;;127.68;;
26742;SDS011;14341;51.256;22.478;2023-02-03T11:23:30;77.22;;;71.55;;
26742;SDS011;14341;51.256;22.478;2023-02-03T11:26:35;149.25;;;138.30;;
26742;SDS011;14341;51.256;22.478;2023-02-03T11:29:45;230.65;;;140.40;;
26742;SDS011;14341;51.256;22.478;2023-02-03T11:32:51;253.13;;;200.88;;
26742;SDS011;14341;51.256;22.478;2023-02-03T11:35:55;52.00;;;48.55;;
26742;SDS011;14341;51.256;22.478;2023-02-03T11:39:15;244.02;;;165.88;;
26742;SDS011;14341;51.256;22.478;2023-02-03T11:42:25;47.33;;;44.10;;
26742;SDS011;14341;51.256;22.478;2023-02-03T11:45:29;48.70;;;45.13;;
26742;SDS011;14341;51.256;22.478;2023-02-03T11:48:45;27.35;;;25.23;;
26742;SDS011;14341;51.256;22.478;2023-02-03T11:52:01;141.80;;;127.60;;
26742;SDS011;14341;51.256;22.478;2023-02-03T11:55:20;381.92;;;280.63;;
26742;SDS011;14341;51.256;22.478;2023-02-03T11:58:45;50.78;;;45.53;;
26742;SDS011;14341;51.256;22.478;2023-02-03T12:05:44;69.63;;;62.85;;
26742;SDS011;14341;51.256;22.478;2023-02-03T12:09:06;93.57;;;86.47;;
26742;SDS011;14341;51.256;22.478;2023-02-03T12:12:27;75.93;;;68.65;;
26742;SDS011;14341;51.256;22.478;2023-02-03T12:15:47;125.45;;;95.30;;
26742;SDS011;14341;51.256;22.478;2023-02-03T12:19:02;49.17;;;45.47;;
26742;SDS011;14341;51.256;22.478;2023-02-03T12:22:17;36.53;;;34.03;;
26742;SDS011;14341;51.256;22.478;2023-02-03T12:25:30;66.03;;;60.55;;
26742;SDS011;14341;51.256;22.478;2023-02-03T12:28:42;66.10;;;60.70;;
26742;SDS011;14341;51.256;22.478;2023-02-03T12:31:59;34.05;;;31.23;;
26742;SDS011;14341;51.256;22.478;2023-02-03T12:35:15;68.30;;;62.65;;
26742;SDS011;14341;51.256;22.478;2023-02-03T12:38:25;159.10;;;105.15;;
26742;SDS011;14341;51.256;22.478;2023-02-03T12:41:36;169.48;;;129.73;;
26742;SDS011;14341;51.256;22.478;2023-02-03T12:44:44;126.70;;;116.07;;
26742;SDS011;14341;51.256;22.478;2023-02-03T12:47:53;29.95;;;27.08;;
26742;SDS011;14341;51.256;22.478;2023-02-03T12:51:00;28.98;;;26.48;;
26742;SDS011;14341;51.256;22.478;2023-02-03T12:54:20;31.75;;;29.02;;
26742;SDS011;14341;51.256;22.478;2023-02-03T12:57:32;137.02;;;96.10;;
26742;SDS011;14341;51.256;22.478;2023-02-03T13:00:42;47.65;;;43.88;;
26742;SDS011;14341;51.256;22.478;2023-02-03T13:03:49;144.68;;;129.82;;
26742;SDS011;14341;51.256;22.478;2023-02-03T13:06:59;65.72;;;59.17;;
26742;SDS011;14341;51.256;22.478;2023-02-03T13:10:13;53.22;;;49.20;;
26742;SDS011;14341;51.256;22.478;2023-02-03T13:13:27;53.35;;;48.70;;
26742;SDS011;14341;51.256;22.478;2023-02-03T13:16:40;166.13;;;147.85;;
26742;SDS011;14341;51.256;22.478;2023-02-03T13:19:47;78.35;;;72.55;;
26742;SDS011;14341;51.256;22.478;2023-02-03T13:22:53;82.82;;;77.03;;
26742;SDS011;14341;51.256;22.478;2023-02-03T13:26:02;70.75;;;65.38;;
26742;SDS011;14341;51.256;22.478;2023-02-03T13:29:21;96.03;;;89.10;;
26742;SDS011;14341;51.256;22.478;2023-02-03T13:32:43;130.27;;;120.43;;
26742;SDS011;14341;51.256;22.478;2023-02-03T13:36:09;230.77;;;182.45;;
26742;SDS011;14341;51.256;22.478;2023-02-03T13:43:01;178.38;;;163.48;;
26742;SDS011;14341;51.256;22.478;2023-02-03T13:46:08;194.15;;;176.68;;
26742;SDS011;14341;51.256;22.478;2023-02-03T13:49:26;148.98;;;135.43;;
26742;SDS011;14341;51.256;22.478;2023-02-03T13:52:33;438.75;;;234.85;;
26742;SDS011;14341;51.256;22.478;2023-02-03T13:55:41;131.93;;;118.07;;
26742;SDS011;14341;51.256;22.478;2023-02-03T13:58:57;143.48;;;129.45;;
26742;SDS011;14341;51.256;22.478;2023-02-03T14:05:54;182.18;;;165.98;;
26742;SDS011;14341;51.256;22.478;2023-02-03T14:08:58;93.72;;;86.15;;
26742;SDS011;14341;51.256;22.478;2023-02-03T14:12:15;189.68;;;132.10;;
26742;SDS011;14341;51.256;22.478;2023-02-03T14:18:42;186.55;;;151.00;;
26742;SDS011;14341;51.256;22.478;2023-02-03T14:21:50;116.57;;;107.78;;
26742;SDS011;14341;51.256;22.478;2023-02-03T14:24:55;152.40;;;139.07;;
26742;SDS011;14341;51.256;22.478;2023-02-03T14:28:06;108.57;;;99.50;;
26742;SDS011;14341;51.256;22.478;2023-02-03T14:31:13;102.70;;;95.25;;
26742;SDS011;14341;51.256;22.478;2023-02-03T14:34:26;98.97;;;91.78;;
26742;SDS011;14341;51.256;22.478;2023-02-03T14:37:33;113.43;;;105.22;;
26742;SDS011;14341;51.256;22.478;2023-02-03T14:40:38;104.97;;;97.13;;
26742;SDS011;14341;51.256;22.478;2023-02-03T14:43:52;87.15;;;80.57;;
26742;SDS011;14341;51.256;22.478;2023-02-03T14:47:08;91.43;;;84.68;;
26742;SDS011;14341;51.256;22.478;2023-02-03T14:50:20;143.95;;;132.30;;
26742;SDS011;14341;51.256;22.478;2023-02-03T14:53:39;86.78;;;79.95;;
26742;SDS011;14341;51.256;22.478;2023-02-03T14:56:53;96.63;;;89.57;;
26742;SDS011;14341;51.256;22.478;2023-02-03T15:00:28;103.20;;;95.95;;
26742;SDS011;14341;51.256;22.478;2023-02-03T15:03:34;112.30;;;104.35;;
26742;SDS011;14341;51.256;22.478;2023-02-03T15:06:42;99.95;;;93.07;;
26742;SDS011;14341;51.256;22.478;2023-02-03T15:09:49;87.35;;;80.97;;
26742;SDS011;14341;51.256;22.478;2023-02-03T15:12:53;92.95;;;86.38;;
26742;SDS011;14341;51.256;22.478;2023-02-03T15:15:59;104.95;;;97.72;;
26742;SDS011;14341;51.256;22.478;2023-02-03T15:19:13;129.13;;;120.30;;
26742;SDS011;14341;51.256;22.478;2023-02-03T15:22:19;106.50;;;99.00;;
26742;SDS011;14341;51.256;22.478;2023-02-03T15:25:25;106.18;;;98.88;;
26742;SDS011;14341;51.256;22.478;2023-02-03T15:28:31;137.48;;;127.65;;
26742;SDS011;14341;51.256;22.478;2023-02-03T15:31:36;189.93;;;174.82;;
26742;SDS011;14341;51.256;22.478;2023-02-03T15:34:43;261.27;;;236.32;;
26742;SDS011;14341;51.256;22.478;2023-02-03T15:37:49;247.23;;;223.40;;
26742;SDS011;14341;51.256;22.478;2023-02-03T15:40:57;116.18;;;108.15;;
26742;SDS011;14341;51.256;22.478;2023-02-03T15:44:01;216.82;;;199.07;;
26742;SDS011;14341;51.256;22.478;2023-02-03T15:47:15;256.58;;;235.45;;
26742;SDS011;14341;51.256;22.478;2023-02-03T15:50:25;186.77;;;170.57;;
26742;SDS011;14341;51.256;22.478;2023-02-03T15:53:32;127.72;;;119.35;;
26742;SDS011;14341;51.256;22.478;2023-02-03T15:56:49;200.02;;;185.55;;
26742;SDS011;14341;51.256;22.478;2023-02-03T15:59:58;142.20;;;132.63;;
26742;SDS011;14341;51.256;22.478;2023-02-03T16:03:14;171.98;;;160.18;;
26742;SDS011;14341;51.256;22.478;2023-02-03T16:06:23;248.35;;;192.77;;
26742;SDS011;14341;51.256;22.478;2023-02-03T16:09:29;156.25;;;145.35;;
26742;SDS011;14341;51.256;22.478;2023-02-03T16:12:35;161.15;;;150.38;;
26742;SDS011;14341;51.256;22.478;2023-02-03T16:15:39;221.30;;;203.43;;
26742;SDS011;14341;51.256;22.478;2023-02-03T16:18:48;161.27;;;150.63;;
26742;SDS011;14341;51.256;22.478;2023-02-03T16:21:53;169.88;;;158.77;;
26742;SDS011;14341;51.256;22.478;2023-02-03T16:25:11;149.85;;;139.85;;
26742;SDS011;14341;51.256;22.478;2023-02-03T16:28:17;148.30;;;138.15;;
26742;SDS011;14341;51.256;22.478;2023-02-03T16:31:39;205.75;;;191.55;;
26742;SDS011;14341;51.256;22.478;2023-02-03T16:35:06;262.17;;;244.75;;
26742;SDS011;14341;51.256;22.478;2023-02-03T16:38:29;248.90;;;233.15;;
26742;SDS011;14341;51.256;22.478;2023-02-03T16:41:50;282.15;;;263.58;;
26742;SDS011;14341;51.256;22.478;2023-02-03T16:45:14;350.95;;;327.40;;
26742;SDS011;14341;51.256;22.478;2023-02-03T16:48:36;349.52;;;325.80;;
26742;SDS011;14341;51.256;22.478;2023-02-03T16:51:57;398.50;;;372.23;;
26742;SDS011;14341;51.256;22.478;2023-02-03T16:55:01;483.33;;;451.13;;
26742;SDS011;14341;51.256;22.478;2023-02-03T16:58:05;469.27;;;438.42;;
26742;SDS011;14341;51.256;22.478;2023-02-03T17:01:10;497.40;;;464.63;;
26742;SDS011;14341;51.256;22.478;2023-02-03T17:04:13;521.53;;;487.13;;
26742;SDS011;14341;51.256;22.478;2023-02-03T17:07:17;521.50;;;487.17;;
26742;SDS011;14341;51.256;22.478;2023-02-03T17:10:20;531.15;;;496.60;;
26742;SDS011;14341;51.256;22.478;2023-02-03T17:13:24;546.83;;;510.80;;
26742;SDS011;14341;51.256;22.478;2023-02-03T17:16:28;579.15;;;540.45;;
26742;SDS011;14341;51.256;22.478;2023-02-03T17:19:33;599.78;;;559.58;;
26742;SDS011;14341;51.256;22.478;2023-02-03T17:22:37;645.47;;;601.22;;
26742;SDS011;14341;51.256;22.478;2023-02-03T17:25:42;622.65;;;579.65;;
26742;SDS011;14341;51.256;22.478;2023-02-03T17:28:46;606.58;;;564.75;;
26742;SDS011;14341;51.256;22.478;2023-02-03T17:31:50;634.92;;;592.00;;
26742;SDS011;14341;51.256;22.478;2023-02-03T17:34:54;605.60;;;565.08;;
26742;SDS011;14341;51.256;22.478;2023-02-03T17:37:57;565.88;;;528.15;;
26742;SDS011;14341;51.256;22.478;2023-02-03T17:41:06;554.92;;;518.33;;
26742;SDS011;14341;51.256;22.478;2023-02-03T17:44:28;623.58;;;579.85;;
26742;SDS011;14341;51.256;22.478;2023-02-03T17:47:50;657.72;;;611.72;;
26742;SDS011;14341;51.256;22.478;2023-02-03T17:51:11;642.78;;;597.25;;
26742;SDS011;14341;51.256;22.478;2023-02-03T17:54:35;471.33;;;440.70;;
26742;SDS011;14341;51.256;22.478;2023-02-03T17:57:39;620.75;;;578.00;;
26742;SDS011;14341;51.256;22.478;2023-02-03T18:00:42;564.95;;;525.53;;
26742;SDS011;14341;51.256;22.478;2023-02-03T18:03:50;571.72;;;532.00;;
26742;SDS011;14341;51.256;22.478;2023-02-03T18:06:54;541.88;;;505.65;;
26742;SDS011;14341;51.256;22.478;2023-02-03T18:09:58;569.42;;;532.00;;
26742;SDS011;14341;51.256;22.478;2023-02-03T18:13:01;578.22;;;538.20;;
26742;SDS011;14341;51.256;22.478;2023-02-03T18:16:07;588.33;;;549.13;;
26742;SDS011;14341;51.256;22.478;2023-02-03T18:19:15;457.65;;;426.85;;
26742;SDS011;14341;51.256;22.478;2023-02-03T18:22:20;606.28;;;565.50;;
26742;SDS011;14341;51.256;22.478;2023-02-03T18:25:23;599.83;;;555.40;;
26742;SDS011;14341;51.256;22.478;2023-02-03T18:28:27;596.53;;;553.17;;
26742;SDS011;14341;51.256;22.478;2023-02-03T18:31:33;604.60;;;561.75;;
26742;SDS011;14341;51.256;22.478;2023-02-03T18:34:39;508.02;;;470.85;;
26742;SDS011;14341;51.256;22.478;2023-02-03T18:37:43;635.90;;;586.83;;
26742;SDS011;14341;51.256;22.478;2023-02-03T18:40:47;671.75;;;614.90;;
26742;SDS011;14341;51.256;22.478;2023-02-03T18:43:52;702.45;;;638.58;;
26742;SDS011;14341;51.256;22.478;2023-02-03T18:46:55;772.53;;;703.47;;
26742;SDS011;14341;51.256;22.478;2023-02-03T18:50:09;763.63;;;655.28;;